createdAt,value
2019-03-25T00:00:45.408Z,5.80
2019-03-25T00:03:14.402Z,5.80
2019-03-25T00:05:42.941Z,5.80
2019-03-25T00:08:11.418Z,5.70
2019-03-25T00:10:40.061Z,5.80
2019-03-25T00:13:08.538Z,5.80
2019-03-25T00:15:37.093Z,5.80
2019-03-25T00:18:05.757Z,5.80
2019-03-25T00:20:34.245Z,5.80
2019-03-25T00:23:02.777Z,5.80
2019-03-25T00:25:31.319Z,5.80
2019-03-25T00:27:59.869Z,5.80
2019-03-25T00:30:28.362Z,5.80
2019-03-25T00:32:57.283Z,5.80
2019-03-25T00:35:25.759Z,5.90
2019-03-25T00:37:54.467Z,5.90
2019-03-25T00:40:22.962Z,5.90
2019-03-25T00:42:51.418Z,5.90
2019-03-25T00:45:20.955Z,6.00
2019-03-25T00:47:51.370Z,6.00
2019-03-25T00:50:31.170Z,6.10
2019-03-25T00:53:01.970Z,6.10
2019-03-25T00:55:33.916Z,6.20
2019-03-25T00:58:08.503Z,6.20
2019-03-25T01:00:38.747Z,6.20
2019-03-25T01:03:10.434Z,6.30
2019-03-25T01:05:39.315Z,6.30
2019-03-25T01:08:10.599Z,6.30
2019-03-25T01:10:42.555Z,6.40
2019-03-25T01:13:18.017Z,6.40
2019-03-25T01:15:50.534Z,6.50
2019-03-25T01:18:20.529Z,6.50
2019-03-25T01:20:52.333Z,6.60
2019-03-25T01:23:24.133Z,6.60
2019-03-25T01:25:54.694Z,6.70
2019-03-25T01:28:23.144Z,6.70
2019-03-25T01:30:51.630Z,6.70
2019-03-25T01:33:20.080Z,6.70
2019-03-25T01:35:48.796Z,6.70
2019-03-25T01:38:17.269Z,6.80
2019-03-25T01:40:46.026Z,6.80
2019-03-25T01:43:14.510Z,6.90
2019-03-25T01:45:42.976Z,6.90
2019-03-25T01:48:11.445Z,7.00
2019-03-25T01:50:39.896Z,7.00
2019-03-25T01:53:08.523Z,7.10
2019-03-25T01:55:37.021Z,7.10
2019-03-25T01:58:05.776Z,7.10
2019-03-25T02:00:34.736Z,7.10
2019-03-25T02:03:03.223Z,7.20
2019-03-25T02:05:31.804Z,7.20
2019-03-25T02:08:00.320Z,7.30
2019-03-25T02:10:34.921Z,7.30
2019-03-25T02:13:05.269Z,7.30
2019-03-25T02:15:33.823Z,7.40
2019-03-25T02:18:02.285Z,7.40
2019-03-25T02:20:30.791Z,7.50
2019-03-25T02:22:59.567Z,7.50
2019-03-25T02:25:28.666Z,7.60
2019-03-25T02:27:57.743Z,7.60
2019-03-25T02:30:26.392Z,7.60
2019-03-25T02:32:55.069Z,7.70
2019-03-25T02:35:23.564Z,7.70
2019-03-25T02:37:52.159Z,7.80
2019-03-25T02:40:20.701Z,7.80
2019-03-25T02:42:49.345Z,7.80
2019-03-25T02:45:17.908Z,7.80
2019-03-25T02:47:46.377Z,7.90
2019-03-25T02:50:14.843Z,7.90
2019-03-25T02:52:43.326Z,7.90
2019-03-25T02:55:12.176Z,7.90
2019-03-25T02:57:40.706Z,7.90
2019-03-25T03:00:11.518Z,7.80
2019-03-25T03:02:40.047Z,7.70
2019-03-25T03:05:08.692Z,7.50
2019-03-25T03:07:37.413Z,7.40
2019-03-25T03:10:07.531Z,7.40
2019-03-25T03:12:36.533Z,7.30
2019-03-25T03:15:06.490Z,7.30
2019-03-25T03:17:34.965Z,7.30
2019-03-25T03:20:05.938Z,7.30
2019-03-25T03:22:34.475Z,7.30
2019-03-25T03:25:03.083Z,7.30
2019-03-25T03:27:31.622Z,7.20
2019-03-25T03:30:00.496Z,7.00
2019-03-25T03:32:29.337Z,6.90
2019-03-25T03:34:58.034Z,6.70
2019-03-25T03:37:26.721Z,6.70
2019-03-25T03:39:55.211Z,6.70
2019-03-25T03:42:24.699Z,6.70
2019-03-25T03:44:53.336Z,6.70
2019-03-25T03:47:22.080Z,6.70
2019-03-25T03:49:50.926Z,6.80
2019-03-25T03:52:19.773Z,6.80
2019-03-25T03:54:48.369Z,6.80
2019-03-25T03:57:16.910Z,6.80
2019-03-25T03:59:45.931Z,6.80
2019-03-25T04:02:14.942Z,6.80
2019-03-25T04:04:43.502Z,6.90
2019-03-25T04:07:12.046Z,6.90
2019-03-25T04:09:40.580Z,6.80
2019-03-25T04:12:09.181Z,6.80
2019-03-25T04:14:37.813Z,6.80
2019-03-25T04:17:06.274Z,6.80
2019-03-25T04:19:34.724Z,6.80
2019-03-25T04:22:03.193Z,6.80
2019-03-25T04:24:31.749Z,6.80
2019-03-25T04:27:00.234Z,6.80
2019-03-25T04:29:28.698Z,6.80
2019-03-25T04:31:57.235Z,6.90
2019-03-25T04:34:25.699Z,6.90
2019-03-25T04:36:54.767Z,6.90
2019-03-25T04:39:23.507Z,6.90
2019-03-25T04:41:51.980Z,6.90
2019-03-25T04:44:20.434Z,6.90
2019-03-25T04:46:49.050Z,6.90
2019-03-25T04:49:17.511Z,6.80
2019-03-25T04:51:46.051Z,6.80
2019-03-25T04:54:14.517Z,6.80
2019-03-25T04:56:43.065Z,6.90
2019-03-25T04:59:11.591Z,6.80
2019-03-25T05:01:40.080Z,6.90
2019-03-25T05:04:08.988Z,6.90
2019-03-25T05:06:38.050Z,6.90
2019-03-25T05:09:06.751Z,6.90
2019-03-25T05:11:35.378Z,6.90
2019-03-25T05:14:05.234Z,6.90
2019-03-25T05:16:33.696Z,6.90
2019-03-25T05:19:02.273Z,6.90
2019-03-25T05:21:30.733Z,6.80
2019-03-25T05:23:59.189Z,6.80
2019-03-25T05:26:27.649Z,6.80
2019-03-25T05:28:56.111Z,6.80
2019-03-25T05:31:24.897Z,6.80
2019-03-25T05:33:53.481Z,6.80
2019-03-25T05:36:21.933Z,6.80
2019-03-25T05:38:50.414Z,6.80
2019-03-25T05:41:18.884Z,6.80
2019-03-25T05:43:47.411Z,6.80
2019-03-25T05:46:15.896Z,6.80
2019-03-25T05:48:44.417Z,6.70
2019-03-25T05:51:13.242Z,6.70
2019-03-25T05:53:41.693Z,6.70
2019-03-25T05:56:11.905Z,6.70
2019-03-25T05:58:40.532Z,6.70
2019-03-25T06:01:09.088Z,6.70
2019-03-25T06:03:37.549Z,6.70
2019-03-25T06:06:06.166Z,6.70
2019-03-25T06:08:34.627Z,6.80
2019-03-25T06:11:03.454Z,6.80
2019-03-25T06:13:31.932Z,6.90
2019-03-25T06:16:00.673Z,6.90
2019-03-25T06:18:29.292Z,7.00
2019-03-25T06:20:57.827Z,7.00
2019-03-25T06:23:26.673Z,7.10
2019-03-25T06:25:55.568Z,7.10
2019-03-25T06:28:24.583Z,7.10
2019-03-25T06:30:53.148Z,7.10
2019-03-25T06:33:21.772Z,7.00
2019-03-25T06:35:50.250Z,7.10
2019-03-25T06:38:18.799Z,7.10
2019-03-25T06:40:49.247Z,7.10
2019-03-25T06:43:17.927Z,7.20
2019-03-25T06:45:46.496Z,7.20
2019-03-25T06:48:14.975Z,7.30
2019-03-25T06:50:43.595Z,7.30
2019-03-25T06:53:12.060Z,7.50
2019-03-25T06:55:40.513Z,7.60
2019-03-25T06:58:08.986Z,7.60
2019-03-25T07:00:37.626Z,7.60
2019-03-25T07:03:06.159Z,7.60
2019-03-25T07:05:34.613Z,7.60
2019-03-25T07:08:03.344Z,7.70
2019-03-25T07:10:34.057Z,7.70
2019-03-25T07:13:02.675Z,7.80
2019-03-25T07:15:32.146Z,7.90
2019-03-25T07:18:00.750Z,7.90
2019-03-25T07:20:29.297Z,8.10
2019-03-25T07:22:58.102Z,8.30
2019-03-25T07:25:26.577Z,8.20
2019-03-25T07:27:55.091Z,8.20
2019-03-25T07:30:23.551Z,8.20
2019-03-25T07:32:52.417Z,8.30
2019-03-25T07:35:32.899Z,8.30
2019-03-25T07:38:02.044Z,8.20
2019-03-25T07:40:32.577Z,8.10
2019-03-25T07:43:08.401Z,8.10
2019-03-25T07:45:36.878Z,8.00
2019-03-25T07:48:05.865Z,8.00
2019-03-25T07:50:34.373Z,7.90
2019-03-25T07:53:07.865Z,7.90
2019-03-25T07:55:36.712Z,7.90
2019-03-25T07:58:09.666Z,7.80
2019-03-25T08:00:38.531Z,7.80
2019-03-25T08:03:07.093Z,7.80
2019-03-25T08:05:35.614Z,7.80
2019-03-25T08:08:07.259Z,7.80
2019-03-25T08:10:36.437Z,8.10
2019-03-25T08:13:05.942Z,8.40
2019-03-25T08:15:35.125Z,8.50
2019-03-25T08:18:04.534Z,8.40
2019-03-25T08:20:33.142Z,8.20
2019-03-25T08:23:03.329Z,8.10
2019-03-25T08:25:31.845Z,8.10
2019-03-25T08:28:00.677Z,8.10
2019-03-25T08:30:29.819Z,8.10
2019-03-25T08:32:58.307Z,8.70
2019-03-25T08:35:26.909Z,9.50
2019-03-25T08:37:55.730Z,9.60
2019-03-25T08:40:24.282Z,9.60
2019-03-25T08:42:52.765Z,10.00
2019-03-25T08:45:21.398Z,10.30
2019-03-25T08:47:49.960Z,10.70
2019-03-25T08:50:18.578Z,10.60
2019-03-25T08:52:47.120Z,10.60
2019-03-25T08:55:16.357Z,10.60
2019-03-25T08:57:44.957Z,10.80
2019-03-25T09:00:14.162Z,10.60
2019-03-25T09:02:42.777Z,10.30
2019-03-25T09:05:12.391Z,10.10
2019-03-25T09:07:40.874Z,10.00
2019-03-25T09:10:10.797Z,10.30
2019-03-25T09:12:39.269Z,10.50
2019-03-25T09:15:09.568Z,10.40
2019-03-25T09:17:38.193Z,10.40
2019-03-25T09:20:07.902Z,10.20
2019-03-25T09:22:36.817Z,9.90
2019-03-25T09:25:07.970Z,9.70
2019-03-25T09:27:36.601Z,9.80
2019-03-25T09:30:08.507Z,9.90
2019-03-25T09:32:37.047Z,10.00
2019-03-25T09:35:07.921Z,10.00
2019-03-25T09:37:36.951Z,10.20
2019-03-25T09:40:10.062Z,10.40
2019-03-25T09:42:39.084Z,10.50
2019-03-25T09:45:09.904Z,10.50
2019-03-25T09:47:38.657Z,10.40
2019-03-25T09:50:14.092Z,10.50
2019-03-25T09:52:46.351Z,10.50
2019-03-25T09:55:22.290Z,10.30
2019-03-25T09:57:53.157Z,10.30
2019-03-25T10:00:41.507Z,10.30
2019-03-25T10:03:14.350Z,10.20
2019-03-25T10:05:46.731Z,10.20
2019-03-25T10:08:21.480Z,10.20
2019-03-25T10:10:52.799Z,10.30
2019-03-25T10:13:23.418Z,10.50
2019-03-25T10:15:52.150Z,10.60
2019-03-25T10:18:20.687Z,10.60
2019-03-25T10:20:49.153Z,10.50
2019-03-25T10:23:17.726Z,10.50
2019-03-25T10:25:46.249Z,10.60
2019-03-25T10:28:14.921Z,10.60
2019-03-25T10:30:43.806Z,10.60
2019-03-25T10:33:12.672Z,10.70
2019-03-25T10:35:41.578Z,10.80
2019-03-25T10:38:19.135Z,10.80
2019-03-25T10:40:40.831Z,10.90
2019-03-25T10:43:09.291Z,10.90
2019-03-25T10:45:37.770Z,10.90
2019-03-25T10:48:06.395Z,10.90
2019-03-25T10:50:34.853Z,10.80
2019-03-25T10:53:03.402Z,10.80
2019-03-25T10:55:31.951Z,10.90
2019-03-25T10:58:00.446Z,10.90
2019-03-25T11:00:29.410Z,10.90
2019-03-25T11:02:57.874Z,10.80
2019-03-25T11:05:26.561Z,10.90
2019-03-25T11:07:55.103Z,10.90
2019-03-25T11:10:23.557Z,10.70
2019-03-25T11:12:52.026Z,10.60
2019-03-25T11:15:21.452Z,10.40
2019-03-25T11:17:49.942Z,10.30
2019-03-25T11:20:19.150Z,10.30
2019-03-25T11:22:47.638Z,10.40
2019-03-25T11:25:17.139Z,10.40
2019-03-25T11:27:54.101Z,10.60
2019-03-25T11:30:19.496Z,10.60
2019-03-25T11:32:48.270Z,10.70
2019-03-25T11:35:17.290Z,10.70
2019-03-25T11:37:52.498Z,10.60
2019-03-25T11:40:23.308Z,10.60
2019-03-25T11:42:53.882Z,10.60
2019-03-25T11:45:29.724Z,10.70
2019-03-25T11:48:00.342Z,10.70
2019-03-25T11:50:34.936Z,10.70
2019-03-25T11:53:03.794Z,10.80
2019-03-25T11:55:32.260Z,10.80
2019-03-25T11:58:00.932Z,10.90
2019-03-25T12:00:29.791Z,10.90
2019-03-25T12:02:58.265Z,11.00
2019-03-25T12:05:26.798Z,11.00
2019-03-25T12:07:55.338Z,11.10
2019-03-25T12:10:24.222Z,11.10
2019-03-25T12:12:53.010Z,11.20
2019-03-25T12:15:21.481Z,11.20
2019-03-25T12:17:49.950Z,11.20
2019-03-25T12:20:18.984Z,11.30
2019-03-25T12:22:47.445Z,11.40
2019-03-25T12:25:15.906Z,11.40
2019-03-25T12:27:44.913Z,11.40
2019-03-25T12:30:14.144Z,11.30
2019-03-25T12:32:42.782Z,11.30
2019-03-25T12:35:11.726Z,11.40
2019-03-25T12:37:40.410Z,11.60
2019-03-25T12:40:09.437Z,11.60
2019-03-25T12:42:37.966Z,11.60
2019-03-25T12:45:07.679Z,11.60
2019-03-25T12:47:36.641Z,11.60
2019-03-25T12:50:08.182Z,11.60
2019-03-25T12:52:36.778Z,11.50
2019-03-25T12:55:06.133Z,11.40
2019-03-25T12:57:34.591Z,11.30
2019-03-25T13:00:04.709Z,11.30
2019-03-25T13:02:33.257Z,11.30
2019-03-25T13:05:01.717Z,11.30
2019-03-25T13:07:30.205Z,11.40
2019-03-25T13:09:59.149Z,11.40
2019-03-25T13:12:27.705Z,11.50
2019-03-25T13:14:56.364Z,11.50
2019-03-25T13:17:24.919Z,11.40
2019-03-25T13:19:53.380Z,11.50
2019-03-25T13:22:21.937Z,11.50
2019-03-25T13:24:50.523Z,11.50
2019-03-25T13:27:18.984Z,11.40
2019-03-25T13:29:52.478Z,11.40
2019-03-25T13:32:17.985Z,11.30
2019-03-25T13:34:46.605Z,11.30
2019-03-25T13:37:15.112Z,11.30
2019-03-25T13:39:43.999Z,11.20
2019-03-25T13:42:12.478Z,11.30
2019-03-25T13:44:40.938Z,11.30
2019-03-25T13:47:09.726Z,11.30
2019-03-25T13:49:38.209Z,11.30
2019-03-25T13:52:06.667Z,11.30
2019-03-25T13:54:35.153Z,11.30
2019-03-25T13:57:04.057Z,11.20
2019-03-25T13:59:32.594Z,11.10
2019-03-25T14:02:01.349Z,11.10
2019-03-25T14:04:29.814Z,11.30
2019-03-25T14:06:58.299Z,11.40
2019-03-25T14:09:27.107Z,11.40
2019-03-25T14:11:55.575Z,11.40
2019-03-25T14:14:24.426Z,11.40
2019-03-25T14:16:52.900Z,11.40
2019-03-25T14:19:21.587Z,11.30
2019-03-25T14:21:50.066Z,11.30
2019-03-25T14:24:18.551Z,11.40
2019-03-25T14:26:47.097Z,11.50
2019-03-25T14:29:15.559Z,11.50
2019-03-25T14:31:44.160Z,11.40
2019-03-25T14:34:14.469Z,11.40
2019-03-25T14:36:42.905Z,11.40
2019-03-25T14:39:11.373Z,11.50
2019-03-25T14:41:40.010Z,11.60
2019-03-25T14:44:08.611Z,11.60
2019-03-25T14:46:37.088Z,11.60
2019-03-25T14:49:05.966Z,11.40
2019-03-25T14:51:34.513Z,11.30
2019-03-25T14:54:02.982Z,11.30
2019-03-25T14:56:31.584Z,11.20
2019-03-25T14:59:00.431Z,11.10
2019-03-25T15:01:29.098Z,11.10
2019-03-25T15:03:57.820Z,11.20
2019-03-25T15:06:26.423Z,11.10
2019-03-25T15:08:54.896Z,11.10
2019-03-25T15:11:23.362Z,11.10
2019-03-25T15:13:51.906Z,11.10
2019-03-25T15:16:20.623Z,11.10
2019-03-25T15:18:49.088Z,11.00
2019-03-25T15:21:17.688Z,10.90
2019-03-25T15:23:46.222Z,10.90
2019-03-25T15:26:14.682Z,10.80
2019-03-25T15:28:43.152Z,10.70
2019-03-25T15:31:11.736Z,10.70
2019-03-25T15:33:40.330Z,10.60
2019-03-25T15:36:08.878Z,10.70
2019-03-25T15:38:37.558Z,10.70
2019-03-25T15:41:06.178Z,10.70
2019-03-25T15:43:34.798Z,10.70
2019-03-25T15:46:03.346Z,10.70
2019-03-25T15:48:31.983Z,10.70
2019-03-25T15:51:02.537Z,10.70
2019-03-25T15:53:31.004Z,10.70
2019-03-25T15:55:59.474Z,10.70
2019-03-25T15:58:27.962Z,10.80
2019-03-25T16:00:56.705Z,10.80
2019-03-25T16:03:25.183Z,10.80
2019-03-25T16:05:53.693Z,10.80
2019-03-25T16:08:26.344Z,10.80
2019-03-25T16:10:55.079Z,10.80
2019-03-25T16:13:23.653Z,10.70
2019-03-25T16:15:52.402Z,10.80
2019-03-25T16:18:38.085Z,10.70
2019-03-25T16:21:08.876Z,10.70
2019-03-25T16:23:37.679Z,10.70
2019-03-25T16:26:06.893Z,10.70
2019-03-25T16:28:35.445Z,10.70
2019-03-25T16:31:05.467Z,10.70
2019-03-25T16:33:34.140Z,10.60
2019-03-25T16:36:02.625Z,10.60
2019-03-25T16:38:31.239Z,10.50
2019-03-25T16:40:59.799Z,10.50
2019-03-25T16:43:28.782Z,10.50
2019-03-25T16:46:08.285Z,10.40
2019-03-25T16:48:39.148Z,10.50
2019-03-25T16:51:09.226Z,10.50
2019-03-25T16:53:37.698Z,10.40
2019-03-25T16:56:06.305Z,10.40
2019-03-25T16:58:34.871Z,10.40
2019-03-25T17:01:10.022Z,10.30
2019-03-25T17:03:33.700Z,10.30
2019-03-25T17:06:02.182Z,10.30
2019-03-25T17:08:30.655Z,10.20
2019-03-25T17:10:59.333Z,10.20
2019-03-25T17:13:27.869Z,10.20
2019-03-25T17:15:56.415Z,10.10
2019-03-25T17:18:24.889Z,10.10
2019-03-25T17:20:53.369Z,10.10
2019-03-25T17:23:22.580Z,10.00
2019-03-25T17:25:53.210Z,10.00
2019-03-25T17:28:21.845Z,9.90
2019-03-25T17:30:51.118Z,9.90
2019-03-25T17:33:19.974Z,9.80
2019-03-25T17:35:48.440Z,9.80
2019-03-25T17:38:16.911Z,9.70
2019-03-25T17:40:45.460Z,9.70
2019-03-25T17:43:14.082Z,9.70
2019-03-25T17:45:42.612Z,9.70
2019-03-25T17:48:11.153Z,9.70
2019-03-25T17:50:39.625Z,9.60
2019-03-25T17:53:08.088Z,9.60
2019-03-25T17:55:37.077Z,9.50
2019-03-25T17:58:08.105Z,9.40
2019-03-25T18:00:53.813Z,9.30
2019-03-25T18:03:22.295Z,9.20
2019-03-25T18:05:50.766Z,9.10
2019-03-25T18:08:19.265Z,9.00
2019-03-25T18:10:47.724Z,8.90
2019-03-25T18:13:22.295Z,8.90
2019-03-25T18:15:46.443Z,8.90
2019-03-25T18:18:15.233Z,8.90
2019-03-25T18:20:43.824Z,8.90
2019-03-25T18:23:12.385Z,8.90
2019-03-25T18:25:40.857Z,8.90
2019-03-25T18:28:09.339Z,8.90
2019-03-25T18:30:38.161Z,8.90
2019-03-25T18:33:06.806Z,8.90
2019-03-25T18:35:35.338Z,8.90
2019-03-25T18:38:03.936Z,8.80
2019-03-25T18:40:32.490Z,8.80
2019-03-25T18:43:08.577Z,8.80
2019-03-25T18:45:38.691Z,8.80
2019-03-25T18:48:07.439Z,8.80
2019-03-25T18:50:36.199Z,8.70
2019-03-25T18:53:05.167Z,8.70
2019-03-25T18:55:36.003Z,8.70
2019-03-25T18:58:04.835Z,8.60
2019-03-25T19:00:36.642Z,8.60
2019-03-25T19:03:08.502Z,8.60
2019-03-25T19:05:44.488Z,8.70
2019-03-25T19:08:13.870Z,8.60
2019-03-25T19:10:44.197Z,8.60
2019-03-25T19:13:12.872Z,8.60
2019-03-25T19:15:41.758Z,8.60
2019-03-25T19:18:10.597Z,8.50
2019-03-25T19:20:39.063Z,8.60
2019-03-25T19:23:07.644Z,8.60
2019-03-25T19:25:36.507Z,8.60
2019-03-25T19:28:05.932Z,8.60
2019-03-25T19:30:34.757Z,8.60
2019-03-25T19:33:03.402Z,8.60
2019-03-25T19:35:32.194Z,8.60
2019-03-25T19:38:00.734Z,8.60
2019-03-25T19:40:29.534Z,8.60
2019-03-25T19:42:58.064Z,8.50
2019-03-25T19:45:26.618Z,8.50
2019-03-25T19:47:58.393Z,8.40
2019-03-25T19:50:31.211Z,8.40
2019-03-25T19:53:01.863Z,8.40
2019-03-25T19:55:30.640Z,8.30
2019-03-25T19:57:59.264Z,8.30
2019-03-25T20:00:39.346Z,8.20
2019-03-25T20:03:08.158Z,8.10
2019-03-25T20:05:37.056Z,8.10
2019-03-25T20:08:06.448Z,8.10
2019-03-25T20:10:37.025Z,8.10
2019-03-25T20:13:06.483Z,8.00
2019-03-25T20:15:45.658Z,8.00
2019-03-25T20:18:05.960Z,8.00
2019-03-25T20:20:34.967Z,8.00
2019-03-25T20:23:04.308Z,8.10
2019-03-25T20:25:33.249Z,8.10
2019-03-25T20:28:02.059Z,8.10
2019-03-25T20:30:31.221Z,8.10
2019-03-25T20:33:00.011Z,8.20
2019-03-25T20:35:30.313Z,8.20
2019-03-25T20:37:58.906Z,8.20
2019-03-25T20:40:29.174Z,8.20
2019-03-25T20:42:57.648Z,8.30
2019-03-25T20:45:29.898Z,8.30
2019-03-25T20:47:58.427Z,8.30
2019-03-25T20:50:26.914Z,8.30
2019-03-25T20:52:55.695Z,8.30
2019-03-25T20:55:24.310Z,8.30
2019-03-25T20:57:52.843Z,8.40
2019-03-25T21:00:40.696Z,8.40
2019-03-25T21:03:28.236Z,8.40
2019-03-25T21:06:00.693Z,8.40
2019-03-25T21:08:29.484Z,8.40
2019-03-25T21:10:58.035Z,8.40
2019-03-25T21:13:33.633Z,8.50
2019-03-25T21:15:59.534Z,8.50
2019-03-25T21:18:31.345Z,8.40
2019-03-25T21:21:02.344Z,8.40
2019-03-25T21:23:31.266Z,8.40
2019-03-25T21:25:59.795Z,8.40
2019-03-25T21:28:37.529Z,8.40
2019-03-25T21:31:17.102Z,8.40
2019-03-25T21:33:45.773Z,8.40
2019-03-25T21:36:14.967Z,8.40
2019-03-25T21:38:44.032Z,8.40
2019-03-25T21:41:23.372Z,8.40
2019-03-25T21:46:44.006Z,8.40
2019-03-25T21:49:15.527Z,8.40
2019-03-25T21:51:48.428Z,8.40
2019-03-25T21:54:16.991Z,8.40
2019-03-25T21:56:45.537Z,8.40
2019-03-25T21:59:14.074Z,8.40
2019-03-25T22:01:42.633Z,8.40
2019-03-25T22:04:11.166Z,8.40
2019-03-25T22:06:39.629Z,8.40
2019-03-25T22:09:08.258Z,8.40
2019-03-25T22:11:36.942Z,8.40
2019-03-25T22:14:05.696Z,8.40
2019-03-25T22:16:34.152Z,8.50
2019-03-25T22:19:02.626Z,8.50
2019-03-25T22:21:31.105Z,8.50
2019-03-25T22:23:59.659Z,8.50
2019-03-25T22:26:28.205Z,8.50
2019-03-25T22:28:56.712Z,8.50
2019-03-25T22:31:25.397Z,8.50
2019-03-25T22:33:54.057Z,8.50
2019-03-25T22:36:22.521Z,8.60
2019-03-25T22:38:51.377Z,8.50
2019-03-25T22:41:19.908Z,8.50
2019-03-25T22:43:48.383Z,8.50
2019-03-25T22:46:17.202Z,8.50
2019-03-25T22:48:45.805Z,8.50
2019-03-25T22:51:14.372Z,8.50
2019-03-25T22:53:42.832Z,8.50
2019-03-25T22:56:11.358Z,8.50
2019-03-25T22:58:39.817Z,8.50
2019-03-25T23:01:08.702Z,8.50
2019-03-25T23:03:39.557Z,8.50
2019-03-25T23:06:07.458Z,8.50
2019-03-25T23:08:35.924Z,8.50
2019-03-25T23:11:04.877Z,8.50
2019-03-25T23:13:33.810Z,8.50
2019-03-25T23:16:02.377Z,8.50
2019-03-25T23:18:31.485Z,8.50
2019-03-25T23:21:00.176Z,8.60
2019-03-25T23:23:28.665Z,8.50
2019-03-25T23:25:57.124Z,8.50
2019-03-25T23:28:25.800Z,8.50
2019-03-25T23:30:54.397Z,8.50
2019-03-25T23:33:22.869Z,8.50
2019-03-25T23:35:51.761Z,8.50
2019-03-25T23:38:20.461Z,8.40
2019-03-25T23:40:49.350Z,8.40
2019-03-25T23:43:22.210Z,8.40
2019-03-25T23:45:51.162Z,8.40
2019-03-25T23:48:20.701Z,8.30
2019-03-25T23:50:53.673Z,8.30
2019-03-25T23:53:25.324Z,8.30
2019-03-25T23:55:56.850Z,8.30
2019-03-25T23:58:27.335Z,8.30
